Time;durP1;ratioP1;P1;durP2;ratioP2;P2;SDS_P1;SDS_P2;PMS_P1;PMS_P2;Temp;Humidity;BMP_temperature;BMP_pressure;BME280_temperature;BME280_humidity;BME280_pressure;Samples;Min_cycle;Max_cycle;Signal;HPM_P1;HPM_P2
2022/03/18 00:00:24;;;;;;;;;;;;;;;6.22;88.72;102839.81;5064457;28;19925;-82
2022/03/18 00:02:53;;;;;;;;;;;;;;;6.25;88.85;102838.97;5067761;28;19960;-82
2022/03/18 00:05:20;;;;;;;;;;;;;;;6.32;85.79;102842.53;5105669;28;20023;-82
2022/03/18 00:07:47;;;;;;;;;;;;;;;6.30;87.24;102847.72;5073642;28;19925;-81
2022/03/18 00:10:14;;;;;;;;;;;;;;;6.45;87.17;102850.53;5066106;28;20008;-82
2022/03/18 00:12:41;;;;;;;;;;;;;;;6.36;85.24;102857.34;5066189;28;19935;-81
2022/03/18 00:15:09;;;;;;;;;;;;;;;6.39;84.16;102852.16;5072451;28;19932;-81
2022/03/18 00:17:36;;;;;;;;;;;;;;;6.33;83.27;102852.09;5072395;28;19928;-82
2022/03/18 00:20:07;;;;;;;;;;;;;;;6.29;86.35;102850.31;5061872;28;19925;-81
2022/03/18 00:22:34;;;;;;;;;;;;;;;6.33;84.75;102858.16;5065793;28;20359;-81
2022/03/18 00:25:01;;;;;;;;;;;;;;;6.17;85.54;102856.22;5073415;28;19924;-81
2022/03/18 00:27:28;;;;;;;;;;;;;;;6.14;85.35;102864.81;5071117;28;20290;-80
2022/03/18 00:29:56;;;;;;;;;;;;;;;6.00;86.16;102868.94;5063298;28;19932;-81
2022/03/18 00:32:23;;;;;;;;;;;;;;;5.96;87.25;102872.34;5062068;28;19924;-82
2022/03/18 00:34:50;;;;;;;;;;;;;;;5.99;86.58;102875.88;5071417;28;19925;-82
2022/03/18 00:37:16;;;;;;;;;;;;;;;5.84;87.75;102886.88;5064838;28;20012;-82
2022/03/18 00:39:43;;;;;;;;;;;;;;;5.81;88.53;102885.97;5055357;28;19951;-81
2022/03/18 00:42:11;;;;;;;;;;;;;;;5.95;89.15;102900.06;5070975;28;19924;-82
2022/03/18 00:44:37;;;;;;;;;;;;;;;5.86;89.43;102908.59;5071991;28;19967;-82
2022/03/18 00:51:59;;;;;;;;;;;;;;;5.87;88.94;102904.25;5071076;28;19931;-82
2022/03/18 00:52:37;;;;;;;;;;;;;;;5.65;88.34;102916.00;5064787;28;19925;-82
2022/03/18 00:55:04;;;;;;;;;;;;;;;5.81;88.99;102917.16;5072894;28;20310;-81
2022/03/18 00:57:31;;;;;;;;;;;;;;;5.73;89.45;102929.13;5072828;28;20012;-81
2022/03/18 00:59:58;;;;;;;;;;;;;;;5.82;88.51;102914.56;5071563;28;20015;-81
2022/03/18 01:02:24;;;;;;;;;;;;;;;5.81;88.04;102924.97;5070377;28;19925;-81
2022/03/18 01:04:51;;;;;;;;;;;;;;;5.81;87.05;102920.63;5072239;28;19964;-81
2022/03/18 01:07:17;;;;;;;;;;;;;;;5.90;86.55;102933.78;5071638;28;19924;-81
2022/03/18 01:09:44;;;;;;;;;;;;;;;5.77;86.93;102947.44;5068776;28;20347;-81
2022/03/18 01:12:11;;;;;;;;;;;;;;;5.79;85.94;102948.31;5093748;28;19925;-81
2022/03/18 01:14:37;;;;;;;;;;;;;;;5.78;85.39;102954.34;5072937;28;19925;-81
2022/03/18 01:17:04;;;;;;;;;;;;;;;5.87;87.22;102953.66;5071487;28;19932;-81
2022/03/18 01:19:31;;;;;;;;;;;;;;;5.97;84.97;102954.72;5071294;28;19929;-81
2022/03/18 01:21:57;;;;;;;;;;;;;;;5.83;84.87;102955.31;5070551;28;20289;-81
2022/03/18 01:24:24;;;;;;;;;;;;;;;5.81;86.11;102961.34;5072717;28;19974;-81
2022/03/18 01:26:51;;;;;;;;;;;;;;;5.85;84.95;102952.75;5072323;28;19925;-81
2022/03/18 01:29:17;;;;;;;;;;;;;;;5.85;84.69;102952.75;5105177;28;19931;-81
2022/03/18 01:31:44;;;;;;;;;;;;;;;5.80;85.11;102952.66;5069741;28;19925;-81
2022/03/18 01:34:10;;;;;;;;;;;;;;;5.75;84.88;102953.44;5070470;28;19924;-81
2022/03/18 01:36:37;;;;;;;;;;;;;;;5.61;85.77;102956.66;5070401;28;19925;-81
2022/03/18 01:39:05;;;;;;;;;;;;;;;5.60;86.72;102965.31;5072494;28;19935;-81
2022/03/18 01:41:33;;;;;;;;;;;;;;;5.64;87.02;102971.44;5069777;28;20004;-81
2022/03/18 01:43:59;;;;;;;;;;;;;;;5.38;88.19;102982.19;5072259;28;19931;-81
2022/03/18 01:46:26;;;;;;;;;;;;;;;5.55;89.83;102986.84;5071721;28;20419;-82
2022/03/18 01:48:53;;;;;;;;;;;;;;;5.58;88.32;102986.88;5072198;28;19970;-81
2022/03/18 01:51:20;;;;;;;;;;;;;;;5.45;89.45;102985.78;5070069;28;19935;-81
2022/03/18 01:54:43;;;;;;;;;;;;;;;5.28;92.88;102994.13;5070978;28;19932;-82
2022/03/18 01:56:33;;;;;;;;;;;;;;;5.55;91.63;103002.44;5051946;28;19931;-82
2022/03/18 01:59:00;;;;;;;;;;;;;;;5.18;95.56;103007.75;5050741;28;20329;-82
2022/03/18 02:01:26;;;;;;;;;;;;;;;5.41;96.12;103018.63;5054490;28;19924;-81
2022/03/18 02:03:54;;;;;;;;;;;;;;;5.64;94.79;103021.69;5070473;28;20316;-82
2022/03/18 02:06:20;;;;;;;;;;;;;;;5.53;96.55;103028.41;5071406;28;19924;-82
2022/03/18 02:08:47;;;;;;;;;;;;;;;5.73;95.71;103033.13;5070757;28;19924;-80
2022/03/18 02:11:14;;;;;;;;;;;;;;;5.74;96.59;103035.75;5071031;28;19929;-82
2022/03/18 02:13:41;;;;;;;;;;;;;;;5.68;95.15;103039.09;5071186;28;20285;-84
2022/03/18 02:16:07;;;;;;;;;;;;;;;5.61;97.15;103039.84;5070196;28;19931;-83
2022/03/18 02:18:34;;;;;;;;;;;;;;;5.67;97.96;103041.66;5070746;28;20380;-83
2022/03/18 02:21:01;;;;;;;;;;;;;;;5.74;98.15;103046.16;5070681;28;19924;-83
2022/03/18 02:23:27;;;;;;;;;;;;;;;5.59;99.20;103049.28;5071665;28;20285;-83
2022/03/18 02:25:54;;;;;;;;;;;;;;;5.58;99.89;103055.34;5071328;28;19924;-83
2022/03/18 02:28:21;;;;;;;;;;;;;;;5.64;100.00;103065.88;5070240;28;20405;-83
2022/03/18 02:30:47;;;;;;;;;;;;;;;5.47;100.00;103067.22;5070096;28;19925;-83
2022/03/18 02:33:14;;;;;;;;;;;;;;;5.59;100.00;103087.41;5069347;28;19925;-83
2022/03/18 02:35:41;;;;;;;;;;;;;;;5.74;100.00;103079.03;5070915;28;20011;-83
2022/03/18 02:38:07;;;;;;;;;;;;;;;5.72;100.00;103073.84;5070164;28;19999;-83
2022/03/18 02:40:34;;;;;;;;;;;;;;;5.64;100.00;103085.78;5065689;28;19935;-83
2022/03/18 02:43:00;;;;;;;;;;;;;;;5.69;100.00;103087.63;5069521;28;19930;-83
2022/03/18 02:45:27;;;;;;;;;;;;;;;5.80;100.00;103095.63;5074933;28;19924;-83
2022/03/18 02:47:56;;;;;;;;;;;;;;;5.74;100.00;103092.94;5074635;28;19968;-81
2022/03/18 02:50:22;;;;;;;;;;;;;;;5.46;100.00;103089.75;5074569;28;20018;-82
2022/03/18 02:52:49;;;;;;;;;;;;;;;5.78;100.00;103096.47;5073985;28;19983;-82
2022/03/18 02:55:17;;;;;;;;;;;;;;;5.88;100.00;103107.09;5074123;28;19931;-81
2022/03/18 02:57:44;;;;;;;;;;;;;;;5.79;100.00;103111.22;5073952;28;20036;-82
2022/03/18 03:00:11;;;;;;;;;;;;;;;5.75;100.00;103106.81;5074227;28;19931;-82
2022/03/18 03:02:37;;;;;;;;;;;;;;;5.61;100.00;103111.72;5072454;28;19925;-82
2022/03/18 03:08:01;;;;;;;;;;;;;;;5.51;100.00;103113.25;5074090;28;20388;-82
2022/03/18 03:10:29;;;;;;;;;;;;;;;5.67;100.00;103117.06;5054301;28;20347;-82
2022/03/18 03:12:56;;;;;;;;;;;;;;;5.74;100.00;103118.94;5069794;28;20253;-82
2022/03/18 03:15:23;;;;;;;;;;;;;;;5.56;100.00;103124.63;5074120;28;19968;-82
2022/03/18 03:17:49;;;;;;;;;;;;;;;5.68;100.00;103124.88;5073386;28;19924;-82
2022/03/18 03:20:16;;;;;;;;;;;;;;;5.73;100.00;103135.34;5073407;28;20264;-82
2022/03/18 03:22:42;;;;;;;;;;;;;;;5.60;100.00;103151.56;5072143;28;19971;-82
2022/03/18 03:25:09;;;;;;;;;;;;;;;5.45;100.00;103149.47;5074891;28;19928;-82
2022/03/18 03:27:36;;;;;;;;;;;;;;;5.53;100.00;103150.53;5074567;28;19925;-82
2022/03/18 03:30:04;;;;;;;;;;;;;;;5.59;100.00;103150.66;5054563;28;19935;-82
2022/03/18 03:32:31;;;;;;;;;;;;;;;5.62;100.00;103144.66;5065402;28;20433;-82
2022/03/18 03:34:57;;;;;;;;;;;;;;;5.65;100.00;103147.34;5073443;28;20011;-82
2022/03/18 03:37:25;;;;;;;;;;;;;;;5.78;100.00;103153.66;5073905;28;20446;-82
2022/03/18 03:39:52;;;;;;;;;;;;;;;5.60;100.00;103167.16;5072662;28;19925;-82
2022/03/18 03:42:19;;;;;;;;;;;;;;;5.46;100.00;103175.50;5072196;28;19935;-82
2022/03/18 03:44:46;;;;;;;;;;;;;;;5.58;100.00;103171.41;5074837;28;20828;-82
2022/03/18 03:47:13;;;;;;;;;;;;;;;5.42;100.00;103175.38;5073481;28;19935;-82
2022/03/18 03:49:40;;;;;;;;;;;;;;;5.54;100.00;103180.00;5073140;28;19935;-82
2022/03/18 03:52:09;;;;;;;;;;;;;;;5.51;100.00;103178.22;5072600;28;19924;-82
2022/03/18 03:54:42;;;;;;;;;;;;;;;5.31;100.00;103168.25;5072977;28;19931;-81
2022/03/18 03:57:09;;;;;;;;;;;;;;;5.56;100.00;103168.81;5073646;28;19924;-80
2022/03/18 03:59:36;;;;;;;;;;;;;;;5.22;100.00;103181.00;5073228;28;20269;-82
2022/03/18 04:02:03;;;;;;;;;;;;;;;5.49;100.00;103172.13;5071927;28;19986;-82
2022/03/18 04:04:29;;;;;;;;;;;;;;;5.40;100.00;103174.47;5072654;28;19925;-82
2022/03/18 04:06:56;;;;;;;;;;;;;;;5.56;100.00;103165.31;5074164;28;19925;-82
2022/03/18 04:09:23;;;;;;;;;;;;;;;5.47;100.00;103176.38;5073578;28;19939;-82
2022/03/18 04:11:49;;;;;;;;;;;;;;;5.60;100.00;103175.81;5071359;28;19924;-82
2022/03/18 04:14:16;;;;;;;;;;;;;;;5.63;100.00;103175.00;5054044;28;20031;-82
2022/03/18 04:16:44;;;;;;;;;;;;;;;5.65;100.00;103179.41;5052104;28;20390;-82
2022/03/18 04:19:11;;;;;;;;;;;;;;;5.83;100.00;103191.03;5052664;28;20291;-81
2022/03/18 04:21:38;;;;;;;;;;;;;;;5.56;100.00;103197.38;5058563;28;19964;-81
2022/03/18 04:24:05;;;;;;;;;;;;;;;5.62;100.00;103214.84;5072737;28;19925;-82
2022/03/18 04:26:31;;;;;;;;;;;;;;;5.41;100.00;103213.50;5072557;28;19925;-81
2022/03/18 04:28:58;;;;;;;;;;;;;;;5.47;100.00;103220.53;5072572;28;19924;-82
2022/03/18 04:31:24;;;;;;;;;;;;;;;5.57;100.00;103204.31;5072408;28;19938;-82
2022/03/18 04:33:51;;;;;;;;;;;;;;;5.53;100.00;103217.22;5073511;28;20752;-82
2022/03/18 04:36:18;;;;;;;;;;;;;;;5.28;100.00;103227.03;5073110;28;19946;-82
2022/03/18 04:38:44;;;;;;;;;;;;;;;5.48;100.00;103237.91;5067090;28;20278;-83
2022/03/18 04:41:11;;;;;;;;;;;;;;;5.35;100.00;103204.66;5067752;28;20370;-81
2022/03/18 04:43:37;;;;;;;;;;;;;;;5.59;100.00;103241.63;5071851;28;19924;-82
2022/03/18 04:46:04;;;;;;;;;;;;;;;5.62;100.00;103238.22;5059310;28;19933;-82
2022/03/18 04:48:31;;;;;;;;;;;;;;;5.60;100.00;103248.59;5052318;28;19925;-82
2022/03/18 04:50:57;;;;;;;;;;;;;;;5.52;100.00;103250.13;5052225;28;19924;-82
2022/03/18 04:53:24;;;;;;;;;;;;;;;5.57;100.00;103258.03;5070348;28;19928;-83
2022/03/18 04:55:51;;;;;;;;;;;;;;;5.70;100.00;103267.88;5071726;28;19924;-82
2022/03/18 04:58:17;;;;;;;;;;;;;;;5.73;100.00;103270.53;5069484;28;19924;-83
2022/03/18 05:00:44;;;;;;;;;;;;;;;5.56;100.00;103264.06;5050693;28;19931;-82
2022/03/18 05:03:11;;;;;;;;;;;;;;;5.57;100.00;103273.63;5067661;28;19931;-82
2022/03/18 05:05:38;;;;;;;;;;;;;;;5.40;100.00;103275.81;5073417;28;20271;-83
2022/03/18 05:08:05;;;;;;;;;;;;;;;5.49;100.00;103281.25;5072330;28;20281;-82
2022/03/18 05:10:32;;;;;;;;;;;;;;;5.36;100.00;103277.44;5052821;28;20314;-82
2022/03/18 05:12:59;;;;;;;;;;;;;;;5.42;100.00;103281.91;5068907;28;19924;-82
2022/03/18 05:15:25;;;;;;;;;;;;;;;5.51;100.00;103293.44;5084254;28;19925;-82
2022/03/18 05:17:54;;;;;;;;;;;;;;;5.38;100.00;103301.75;5071794;28;19925;-82
2022/03/18 05:20:21;;;;;;;;;;;;;;;5.12;100.00;103304.56;5072711;28;20015;-83
2022/03/18 05:22:48;;;;;;;;;;;;;;;5.35;100.00;103300.78;5070448;28;20655;-83
2022/03/18 05:25:14;;;;;;;;;;;;;;;5.51;100.00;103308.16;5070949;28;19946;-83
2022/03/18 05:27:42;;;;;;;;;;;;;;;5.58;100.00;103307.47;5071951;28;20022;-82
2022/03/18 05:30:14;;;;;;;;;;;;;;;5.54;100.00;103305.59;5072013;28;19928;-82
2022/03/18 05:32:41;;;;;;;;;;;;;;;5.53;100.00;103321.19;5069901;28;19924;-80
2022/03/18 05:35:09;;;;;;;;;;;;;;;5.48;100.00;103316.72;5071452;28;19931;-80
2022/03/18 05:37:36;;;;;;;;;;;;;;;5.64;100.00;103317.13;5071441;28;19924;-80
2022/03/18 05:40:03;;;;;;;;;;;;;;;5.65;100.00;103324.09;5065278;28;19940;-80
2022/03/18 05:42:30;;;;;;;;;;;;;;;5.82;100.00;103327.94;5064280;28;19931;-81
2022/03/18 05:44:57;;;;;;;;;;;;;;;5.55;100.00;103328.16;5071118;28;19924;-81
2022/03/18 05:47:24;;;;;;;;;;;;;;;5.57;100.00;103338.59;5070437;28;20011;-81
2022/03/18 05:49:50;;;;;;;;;;;;;;;5.53;100.00;103345.44;5071464;28;20471;-81
2022/03/18 05:52:17;;;;;;;;;;;;;;;5.81;100.00;103352.22;5069895;28;20285;-82
2022/03/18 05:54:43;;;;;;;;;;;;;;;5.66;100.00;103347.50;5070569;28;19924;-81
2022/03/18 05:57:12;;;;;;;;;;;;;;;5.77;100.00;103346.88;5067108;28;19931;-81
2022/03/18 05:59:38;;;;;;;;;;;;;;;5.78;100.00;103352.13;5058994;28;20267;-81
2022/03/18 06:02:06;;;;;;;;;;;;;;;5.68;100.00;103357.94;5061512;28;20019;-81
2022/03/18 06:04:34;;;;;;;;;;;;;;;5.89;100.00;103365.38;5061928;28;19933;-82
2022/03/18 06:07:02;;;;;;;;;;;;;;;5.76;100.00;103372.00;5060782;28;19924;-82
2022/03/18 06:12:14;;;;;;;;;;;;;;;5.51;100.00;103384.38;5064531;28;19928;-81
2022/03/18 06:14:41;;;;;;;;;;;;;;;5.82;100.00;103379.94;5065822;28;20327;-81
2022/03/18 06:17:07;;;;;;;;;;;;;;;5.89;100.00;103376.66;5065972;28;19925;-83
2022/03/18 06:19:34;;;;;;;;;;;;;;;5.98;100.00;103383.84;5065208;28;19929;-83
2022/03/18 06:22:01;;;;;;;;;;;;;;;5.94;100.00;103392.38;5065310;28;19931;-83
2022/03/18 06:24:29;;;;;;;;;;;;;;;6.00;100.00;103399.47;5067597;28;19924;-84
2022/03/18 06:26:56;;;;;;;;;;;;;;;5.94;100.00;103404.50;5065160;28;19924;-83
2022/03/18 06:29:23;;;;;;;;;;;;;;;6.06;100.00;103404.84;5066688;28;19955;-83
2022/03/18 06:31:50;;;;;;;;;;;;;;;6.02;100.00;103410.78;5064754;28;19932;-84
2022/03/18 06:34:17;;;;;;;;;;;;;;;6.05;100.00;103426.47;5065255;28;19932;-82
2022/03/18 06:36:44;;;;;;;;;;;;;;;5.98;100.00;103424.56;5059970;28;19935;-83
2022/03/18 06:39:10;;;;;;;;;;;;;;;6.23;100.00;103429.53;5066407;28;19963;-82
2022/03/18 06:41:37;;;;;;;;;;;;;;;6.37;100.00;103436.78;5066386;28;19924;-83
2022/03/18 06:44:06;;;;;;;;;;;;;;;6.08;100.00;103440.44;5066252;28;19932;-83
2022/03/18 06:46:33;;;;;;;;;;;;;;;6.29;100.00;103427.94;5066530;28;19933;-84
2022/03/18 06:49:00;;;;;;;;;;;;;;;6.33;100.00;103434.94;5060560;28;19968;-83
2022/03/18 06:51:26;;;;;;;;;;;;;;;6.49;100.00;103431.84;5068406;28;19930;-83
2022/03/18 06:53:53;;;;;;;;;;;;;;;6.47;100.00;103434.41;5065315;28;19935;-82
2022/03/18 06:56:20;;;;;;;;;;;;;;;6.58;100.00;103434.66;5064663;28;19925;-82
2022/03/18 06:58:47;;;;;;;;;;;;;;;6.71;100.00;103437.53;5066089;28;19928;-83
2022/03/18 07:01:14;;;;;;;;;;;;;;;6.64;100.00;103436.53;5063594;28;19928;-82
2022/03/18 07:03:41;;;;;;;;;;;;;;;6.89;100.00;103435.34;5064565;28;20329;-83
2022/03/18 07:06:08;;;;;;;;;;;;;;;6.93;100.00;103437.13;5067476;28;19929;-82
2022/03/18 07:08:35;;;;;;;;;;;;;;;6.71;100.00;103441.03;5063537;28;20007;-82
2022/03/18 07:11:02;;;;;;;;;;;;;;;6.88;100.00;103446.59;5064340;28;19925;-82
2022/03/18 07:13:29;;;;;;;;;;;;;;;7.13;100.00;103442.75;5062038;28;19931;-83
2022/03/18 07:15:55;;;;;;;;;;;;;;;7.29;100.00;103451.75;5063968;28;20501;-83
2022/03/18 07:18:22;;;;;;;;;;;;;;;7.18;100.00;103455.88;5060818;28;19932;-83
2022/03/18 07:20:49;;;;;;;;;;;;;;;7.32;100.00;103453.56;5065254;28;19925;-83
2022/03/18 07:23:16;;;;;;;;;;;;;;;7.68;100.00;103452.47;5069283;28;19924;-83
2022/03/18 07:25:44;;;;;;;;;;;;;;;8.07;100.00;103460.09;5062021;28;20371;-83
2022/03/18 07:28:16;;;;;;;;;;;;;;;8.02;100.00;103466.09;5060152;28;20390;-84
2022/03/18 07:30:44;;;;;;;;;;;;;;;7.71;100.00;103461.22;5062490;28;20028;-84
2022/03/18 07:33:11;;;;;;;;;;;;;;;8.09;100.00;103470.56;5063480;28;21140;-84
2022/03/18 07:35:37;;;;;;;;;;;;;;;8.75;100.00;103469.00;5064904;28;19925;-84
2022/03/18 07:38:09;;;;;;;;;;;;;;;8.74;100.00;103475.94;5065430;28;20277;-84
2022/03/18 07:40:36;;;;;;;;;;;;;;;9.26;100.00;103467.91;5071579;28;19924;-84
2022/03/18 07:43:05;;;;;;;;;;;;;;;9.63;100.00;103465.69;5062334;28;19931;-84
2022/03/18 07:45:33;;;;;;;;;;;;;;;9.52;100.00;103458.59;5064843;28;19976;-83
2022/03/18 07:48:01;;;;;;;;;;;;;;;9.90;100.00;103464.19;5065037;28;19961;-83
2022/03/18 07:50:29;;;;;;;;;;;;;;;9.67;100.00;103471.84;5064052;28;19931;-83
2022/03/18 07:53:01;;;;;;;;;;;;;;;9.78;99.63;103471.94;5066448;28;19924;-83
2022/03/18 07:55:28;;;;;;;;;;;;;;;9.76;100.00;103477.16;5085318;28;19924;-83
2022/03/18 07:57:55;;;;;;;;;;;;;;;9.72;100.00;103471.84;5082924;28;19924;-85
2022/03/18 08:00:22;;;;;;;;;;;;;;;10.06;100.00;103470.44;5074230;28;19925;-83
2022/03/18 08:02:50;;;;;;;;;;;;;;;10.53;97.87;103469.91;5072470;28;19924;-84
2022/03/18 08:05:16;;;;;;;;;;;;;;;10.05;95.62;103477.38;5094077;28;20503;-84
2022/03/18 08:07:53;;;;;;;;;;;;;;;10.28;97.01;103481.94;5090114;28;20369;-84
2022/03/18 08:10:19;;;;;;;;;;;;;;;10.63;93.32;103484.84;5064897;28;19932;-84
2022/03/18 08:12:47;;;;;;;;;;;;;;;10.61;93.14;103483.09;5065631;28;19932;-83
2022/03/18 08:15:15;;;;;;;;;;;;;;;11.07;93.64;103479.84;5080291;28;20054;-83
2022/03/18 08:17:42;;;;;;;;;;;;;;;10.93;94.25;103485.88;5093550;28;19924;-84
2022/03/18 08:20:12;;;;;;;;;;;;;;;10.89;90.95;103483.22;5091865;28;19927;-84
2022/03/18 08:22:39;;;;;;;;;;;;;;;10.67;93.87;103482.25;5081235;28;19931;-84
2022/03/18 08:25:06;;;;;;;;;;;;;;;10.49;95.67;103486.50;5082452;28;19924;-84
2022/03/18 08:27:33;;;;;;;;;;;;;;;10.47;95.59;103496.09;5077338;28;19946;-84
2022/03/18 08:30:00;;;;;;;;;;;;;;;10.91;93.02;103497.22;5092977;28;19924;-84
2022/03/18 08:32:27;;;;;;;;;;;;;;;10.68;95.76;103502.31;5075401;28;20463;-84
2022/03/18 08:34:57;;;;;;;;;;;;;;;10.65;96.11;103500.56;5072745;28;19930;-84
2022/03/18 08:40:10;;;;;;;;;;;;;;;10.72;94.68;103504.13;5073781;28;20279;-85
2022/03/18 08:42:37;;;;;;;;;;;;;;;9.91;98.95;103513.03;5065041;28;19975;-84
2022/03/18 08:45:04;;;;;;;;;;;;;;;10.56;99.02;103518.84;5078701;28;19924;-84
2022/03/18 08:47:31;;;;;;;;;;;;;;;11.02;97.37;103514.75;5086920;28;20368;-84
2022/03/18 08:49:58;;;;;;;;;;;;;;;10.98;96.02;103507.75;5065006;28;20306;-83
2022/03/18 08:52:25;;;;;;;;;;;;;;;10.74;95.48;103515.47;5070925;28;19938;-85
2022/03/18 08:54:51;;;;;;;;;;;;;;;10.67;97.74;103509.31;5073597;28;20278;-85
2022/03/18 08:57:18;;;;;;;;;;;;;;;11.25;93.88;103511.34;5071875;28;20393;-83
2022/03/18 08:59:44;;;;;;;;;;;;;;;11.50;91.71;103506.19;5071252;28;19924;-84
2022/03/18 09:02:11;;;;;;;;;;;;;;;10.80;93.98;103520.75;5077773;28;19924;-84
2022/03/18 09:04:38;;;;;;;;;;;;;;;10.51;95.38;103524.06;5087535;28;19955;-84
2022/03/18 09:07:10;;;;;;;;;;;;;;;9.93;98.38;103529.63;5063486;28;19924;-83
2022/03/18 09:09:37;;;;;;;;;;;;;;;10.34;100.00;103529.19;5070225;28;19925;-84
2022/03/18 09:12:04;;;;;;;;;;;;;;;10.65;98.85;103529.38;5053442;28;20290;-84
2022/03/18 09:14:30;;;;;;;;;;;;;;;10.39;98.24;103532.72;5070716;28;19928;-84
2022/03/18 09:16:57;;;;;;;;;;;;;;;10.44;100.00;103536.22;5071336;28;19930;-84
2022/03/18 09:19:25;;;;;;;;;;;;;;;10.14;100.00;103536.81;5071591;28;19928;-84
2022/03/18 09:21:51;;;;;;;;;;;;;;;10.04;100.00;103529.75;5073112;28;19925;-83
2022/03/18 09:24:21;;;;;;;;;;;;;;;10.11;100.00;103530.66;5091094;28;19924;-84
2022/03/18 09:26:51;;;;;;;;;;;;;;;10.45;100.00;103522.28;5090199;28;20285;-83
2022/03/18 09:29:18;;;;;;;;;;;;;;;10.16;100.00;103539.44;5084371;28;19934;-86
2022/03/18 09:31:44;;;;;;;;;;;;;;;10.32;100.00;103538.75;5070115;28;19928;-85
2022/03/18 09:34:11;;;;;;;;;;;;;;;10.24;100.00;103537.78;5071532;28;19932;-82
2022/03/18 09:36:38;;;;;;;;;;;;;;;10.25;99.28;103547.38;5080539;28;19947;-85
2022/03/18 09:39:10;;;;;;;;;;;;;;;10.47;99.04;103543.25;5088968;28;19931;-85
2022/03/18 09:41:37;;;;;;;;;;;;;;;10.22;100.00;103550.00;5070144;28;19924;-85
2022/03/18 09:44:03;;;;;;;;;;;;;;;10.51;97.74;103552.88;5074320;28;20412;-85
2022/03/18 09:46:32;;;;;;;;;;;;;;;10.79;95.80;103545.22;5080570;28;20007;-85
2022/03/18 09:49:00;;;;;;;;;;;;;;;10.97;95.12;103552.31;5076539;28;20588;-86
2022/03/18 09:51:27;;;;;;;;;;;;;;;10.98;94.42;103554.06;5076873;28;19930;-86
2022/03/18 09:54:14;;;;;;;;;;;;;;;11.18;95.99;103555.03;5067686;28;20286;-86
2022/03/18 09:56:42;;;;;;;;;;;;;;;10.79;94.73;103559.19;5052407;28;20626;-86
2022/03/18 09:59:09;;;;;;;;;;;;;;;10.99;93.96;103561.03;5083950;28;20415;-86
2022/03/18 10:01:36;;;;;;;;;;;;;;;10.61;95.89;103574.78;5073367;28;20011;-86
2022/03/18 10:04:03;;;;;;;;;;;;;;;10.54;95.60;103570.38;5073996;28;19928;-86
2022/03/18 10:06:32;;;;;;;;;;;;;;;10.58;94.51;103570.38;5089923;28;20296;-86
2022/03/18 10:08:59;;;;;;;;;;;;;;;10.99;94.25;103571.53;5090696;28;19930;-86
2022/03/18 10:11:27;;;;;;;;;;;;;;;11.00;92.85;103578.53;5072899;28;19976;-86
2022/03/18 10:14:03;;;;;;;;;;;;;;;10.92;92.89;103577.59;5074943;28;20285;-85
2022/03/18 10:16:34;;;;;;;;;;;;;;;10.81;92.35;103580.16;5070249;28;19925;-86
2022/03/18 10:19:01;;;;;;;;;;;;;;;11.23;91.25;103577.81;5075629;28;19967;-86
2022/03/18 10:21:28;;;;;;;;;;;;;;;11.12;90.74;103575.09;5069483;28;19925;-86
2022/03/18 10:24:10;;;;;;;;;;;;;;;11.13;89.82;103576.88;5079520;28;19928;-86
2022/03/18 10:26:37;;;;;;;;;;;;;;;11.32;87.83;103577.84;5108573;28;19931;-86
2022/03/18 10:29:05;;;;;;;;;;;;;;;11.56;88.15;103569.19;5084783;28;20018;-86
2022/03/18 10:31:31;;;;;;;;;;;;;;;10.89;89.07;103585.44;5074255;28;20351;-86
2022/03/18 10:39:40;;;;;;;;;;;;;;;10.64;94.35;103577.41;5053817;28;19929;-86
2022/03/18 10:42:15;;;;;;;;;;;;;;;10.78;92.17;103560.06;5073893;28;20380;-86
2022/03/18 10:44:43;;;;;;;;;;;;;;;11.13;90.22;103566.38;5090869;28;20230;-87
2022/03/18 10:47:29;;;;;;;;;;;;;;;10.94;90.01;103560.13;5091182;28;19924;-86
2022/03/18 10:50:08;;;;;;;;;;;;;;;11.21;89.54;103546.31;5050617;28;20382;-86
2022/03/18 10:52:35;;;;;;;;;;;;;;;11.18;91.16;103555.03;5063279;28;20345;-86
2022/03/18 10:55:15;;;;;;;;;;;;;;;11.58;88.48;103557.84;5069225;28;19925;-86
2022/03/18 10:57:48;;;;;;;;;;;;;;;11.69;88.65;103557.84;5103463;28;20023;-86
2022/03/18 11:00:15;;;;;;;;;;;;;;;11.59;85.85;103571.81;5054693;28;19951;-86
2022/03/18 11:02:42;;;;;;;;;;;;;;;11.27;87.02;103556.81;5073213;28;20007;-87
2022/03/18 11:05:12;;;;;;;;;;;;;;;11.35;88.03;103581.34;5074017;28;20282;-86
2022/03/18 11:07:41;;;;;;;;;;;;;;;11.24;86.75;103583.03;5073397;28;19924;-86
2022/03/18 11:12:56;;;;;;;;;;;;;;;11.30;87.01;103597.94;5074514;28;19932;-85
2022/03/18 11:15:26;;;;;;;;;;;;;;;11.76;88.79;103558.75;5074235;28;19924;-86
2022/03/18 11:17:55;;;;;;;;;;;;;;;12.11;85.39;103577.25;5071547;28;19935;-84
2022/03/18 11:20:24;;;;;;;;;;;;;;;11.78;86.76;103572.75;5073364;28;19924;-85
2022/03/18 11:22:51;;;;;;;;;;;;;;;12.01;86.59;103572.84;5073985;28;19939;-85
2022/03/18 11:25:18;;;;;;;;;;;;;;;12.07;86.98;103593.84;5073913;28;20019;-82
2022/03/18 11:27:46;;;;;;;;;;;;;;;12.07;83.19;103592.97;5072822;28;19924;-84
2022/03/18 11:30:21;;;;;;;;;;;;;;;12.26;81.83;103581.63;5073745;28;19928;-84
2022/03/18 11:33:06;;;;;;;;;;;;;;;12.32;80.70;103575.47;5071149;28;20392;-84
2022/03/18 11:35:48;;;;;;;;;;;;;;;12.45;79.44;103568.50;5073531;28;19940;-86
2022/03/18 11:38:19;;;;;;;;;;;;;;;11.92;80.26;103565.81;5074455;28;19925;-85
2022/03/18 11:40:53;;;;;;;;;;;;;;;12.29;79.62;103555.34;5073937;28;19929;-83
2022/03/18 11:43:41;;;;;;;;;;;;;;;11.70;82.19;103563.97;5117996;27;19924;-82
2022/03/18 11:46:14;;;;;;;;;;;;;;;12.26;81.65;103570.25;5053581;28;20290;-85
2022/03/18 11:48:46;;;;;;;;;;;;;;;12.25;82.99;103571.09;5053252;28;19925;-84
2022/03/18 11:51:26;;;;;;;;;;;;;;;12.54;83.85;103568.50;5060997;28;19947;-84
2022/03/18 11:53:54;;;;;;;;;;;;;;;12.34;81.86;103569.38;5067264;28;19925;-85
2022/03/18 11:56:41;;;;;;;;;;;;;;;12.45;80.10;103560.63;5054336;28;20631;-86
2022/03/18 11:59:29;;;;;;;;;;;;;;;12.42;80.72;103569.34;5085461;28;19930;-85
2022/03/18 12:01:59;;;;;;;;;;;;;;;12.61;79.15;103564.13;5080751;28;19982;-85
2022/03/18 12:04:46;;;;;;;;;;;;;;;12.94;78.69;103571.03;5072628;28;19924;-85
2022/03/18 12:07:13;;;;;;;;;;;;;;;12.29;78.51;103581.63;5073032;28;20359;-84
2022/03/18 12:09:49;;;;;;;;;;;;;;;12.52;77.46;103565.88;5072187;28;20386;-83
2022/03/18 12:12:17;;;;;;;;;;;;;;;12.50;74.50;103575.50;5071316;28;19935;-84
2022/03/18 12:14:44;;;;;;;;;;;;;;;12.42;74.74;103579.00;5072431;28;19931;-84
2022/03/18 12:17:11;;;;;;;;;;;;;;;12.67;74.20;103577.22;5072576;28;19928;-84
2022/03/18 12:19:53;;;;;;;;;;;;;;;12.91;73.78;103574.56;5052768;28;19968;-84
2022/03/18 12:22:20;;;;;;;;;;;;;;;12.65;72.34;103566.72;5073520;28;20010;-84
2022/03/18 12:24:48;;;;;;;;;;;;;;;12.85;73.07;103568.44;5083246;28;19931;-92
2022/03/18 12:27:16;;;;;;;;;;;;;;;13.30;72.28;103580.59;5077103;28;19931;-93
2022/03/18 12:29:43;;;;;;;;;;;;;;;13.04;71.94;103572.78;5074208;28;19924;-92
2022/03/18 12:32:10;;;;;;;;;;;;;;;12.96;70.54;103571.94;5082673;28;19931;-92
2022/03/18 12:34:46;;;;;;;;;;;;;;;12.94;72.59;103571.03;5076063;28;19929;-92
2022/03/18 12:37:20;;;;;;;;;;;;;;;13.17;72.39;103583.25;5078113;28;19931;-93
2022/03/18 12:39:49;;;;;;;;;;;;;;;12.81;71.75;103588.59;5094221;28;19946;-92
2022/03/18 12:42:16;;;;;;;;;;;;;;;12.54;72.71;103571.13;5079827;28;19950;-93
2022/03/18 12:44:46;;;;;;;;;;;;;;;13.04;71.34;103570.16;5077203;28;19947;-92
2022/03/18 12:47:14;;;;;;;;;;;;;;;13.63;71.83;103567.31;5066027;28;19928;-92
2022/03/18 12:49:40;;;;;;;;;;;;;;;13.82;69.94;103562.81;5094432;28;20362;-93
2022/03/18 12:52:08;;;;;;;;;;;;;;;13.92;70.11;103567.16;5079104;28;20277;-93
2022/03/18 12:54:35;;;;;;;;;;;;;;;13.81;69.57;103569.84;5073042;28;19947;-93
2022/03/18 12:57:02;;;;;;;;;;;;;;;13.89;68.86;103572.44;5073525;28;19947;-93
2022/03/18 12:59:29;;;;;;;;;;;;;;;13.62;68.50;103584.88;5079677;28;19924;-92
2022/03/18 13:01:56;;;;;;;;;;;;;;;13.28;68.30;103577.09;5072589;28;20017;-92